createdAt,value
2019-02-18T00:00:46.762Z,45.80
2019-02-18T00:03:14.222Z,46.10
2019-02-18T00:05:41.699Z,46.20
2019-02-18T00:08:09.162Z,46.40
2019-02-18T00:10:36.658Z,46.30
2019-02-18T00:13:04.119Z,46.30
2019-02-18T00:15:31.603Z,46.10
2019-02-18T00:17:59.061Z,45.90
2019-02-18T00:20:26.532Z,45.80
2019-02-18T00:22:53.995Z,45.80
2019-02-18T00:25:21.495Z,45.90
2019-02-18T00:27:48.959Z,45.90
2019-02-18T00:30:16.454Z,45.80
2019-02-18T00:32:43.902Z,46.40
2019-02-18T00:35:11.381Z,45.80
2019-02-18T00:37:38.841Z,45.80
2019-02-18T00:40:07.577Z,45.90
2019-02-18T00:42:35.054Z,45.90
2019-02-18T00:45:02.702Z,45.80
2019-02-18T00:47:30.164Z,45.80
2019-02-18T00:49:57.643Z,45.80
2019-02-18T00:52:25.117Z,45.80
2019-02-18T00:54:52.572Z,45.80
2019-02-18T00:57:20.048Z,45.80
2019-02-18T00:59:47.555Z,45.80
2019-02-18T01:02:15.009Z,45.90
2019-02-18T01:04:42.478Z,45.80
2019-02-18T01:07:09.951Z,45.80
2019-02-18T01:09:37.450Z,45.80
2019-02-18T01:12:04.921Z,45.80
2019-02-18T01:14:32.376Z,45.80
2019-02-18T01:16:59.841Z,45.80
2019-02-18T01:19:27.297Z,45.80
2019-02-18T01:21:54.782Z,45.80
2019-02-18T01:24:22.245Z,45.80
2019-02-18T01:26:49.713Z,45.80
2019-02-18T01:29:17.178Z,45.80
2019-02-18T01:31:44.689Z,45.80
2019-02-18T01:34:12.149Z,45.80
2019-02-18T01:36:39.618Z,45.80
2019-02-18T01:39:07.094Z,45.80
2019-02-18T01:41:34.565Z,45.80
2019-02-18T01:44:02.028Z,45.80
2019-02-18T01:46:29.502Z,45.80
2019-02-18T01:48:56.977Z,45.80
2019-02-18T01:51:24.463Z,45.90
2019-02-18T01:53:52.289Z,45.80
2019-02-18T01:56:19.758Z,45.80
2019-02-18T01:58:47.222Z,45.90
2019-02-18T02:01:14.895Z,45.90
2019-02-18T02:03:42.359Z,45.80
2019-02-18T02:06:09.821Z,45.80
2019-02-18T02:08:37.290Z,45.80
2019-02-18T02:11:04.886Z,45.80
2019-02-18T02:13:33.332Z,45.80
2019-02-18T02:16:01.437Z,45.80
2019-02-18T02:18:29.000Z,45.80
2019-02-18T02:20:56.440Z,45.70
2019-02-18T02:23:23.913Z,45.70
2019-02-18T02:25:51.381Z,45.80
2019-02-18T02:28:18.891Z,45.70
2019-02-18T02:30:46.354Z,45.80
2019-02-18T02:33:13.813Z,45.70
2019-02-18T02:35:41.273Z,45.80
2019-02-18T02:38:08.767Z,45.70
2019-02-18T02:40:36.294Z,45.70
2019-02-18T02:43:03.766Z,45.60
2019-02-18T02:45:31.244Z,45.50
2019-02-18T02:47:58.754Z,45.50
2019-02-18T02:50:26.209Z,45.60
2019-02-18T02:52:53.677Z,45.70
2019-02-18T02:55:21.132Z,45.60
2019-02-18T02:57:48.617Z,45.50
2019-02-18T03:00:16.072Z,45.50
2019-02-18T03:02:43.560Z,45.40
2019-02-18T03:05:11.044Z,45.40
2019-02-18T03:07:38.497Z,45.60
2019-02-18T03:10:07.240Z,45.50
2019-02-18T03:12:34.693Z,45.50
2019-02-18T03:15:02.154Z,45.50
2019-02-18T03:17:29.638Z,45.50
2019-02-18T03:19:57.104Z,45.70
2019-02-18T03:22:24.585Z,45.80
2019-02-18T03:25:10.430Z,45.80
2019-02-18T03:27:37.898Z,45.70
2019-02-18T03:30:18.828Z,45.70
2019-02-18T03:32:46.358Z,45.80
2019-02-18T03:35:13.830Z,45.60
2019-02-18T03:37:41.290Z,45.70
2019-02-18T03:40:08.773Z,45.70
2019-02-18T03:42:36.221Z,45.70
2019-02-18T03:45:04.665Z,45.60
2019-02-18T03:47:32.125Z,45.70
2019-02-18T03:49:59.598Z,45.80
2019-02-18T03:52:27.062Z,45.70
2019-02-18T03:54:54.525Z,45.70
2019-02-18T03:57:21.988Z,45.60
2019-02-18T03:59:49.472Z,45.60
2019-02-18T04:02:16.943Z,45.60
2019-02-18T04:04:44.406Z,45.70
2019-02-18T04:07:11.878Z,45.60
2019-02-18T04:09:39.354Z,45.50
2019-02-18T04:12:06.813Z,45.50
2019-02-18T04:14:34.274Z,45.40
2019-02-18T04:17:01.748Z,45.40
2019-02-18T04:19:29.210Z,45.40
2019-02-18T04:21:56.685Z,45.40
2019-02-18T04:24:24.156Z,45.60
2019-02-18T04:26:51.650Z,45.60
2019-02-18T04:29:19.121Z,45.60
2019-02-18T04:31:46.585Z,45.60
2019-02-18T04:34:14.053Z,45.60
2019-02-18T04:36:41.525Z,45.40
2019-02-18T04:39:09.238Z,45.40
2019-02-18T04:41:36.718Z,45.40
2019-02-18T04:44:04.166Z,45.40
2019-02-18T04:46:31.637Z,45.40
2019-02-18T04:48:59.101Z,45.40
2019-02-18T04:51:26.575Z,45.30
2019-02-18T04:53:54.029Z,45.30
2019-02-18T04:56:21.494Z,45.30
2019-02-18T04:58:48.973Z,45.40
2019-02-18T05:01:16.459Z,45.40
2019-02-18T05:03:43.929Z,45.40
2019-02-18T05:06:11.398Z,45.40
2019-02-18T05:08:38.868Z,45.20
2019-02-18T05:11:06.341Z,45.10
2019-02-18T05:13:34.054Z,45.10
2019-02-18T05:16:01.532Z,45.10
2019-02-18T05:18:29.015Z,45.10
2019-02-18T05:20:56.477Z,45.00
2019-02-18T05:23:23.946Z,45.10
2019-02-18T05:25:51.396Z,44.80
2019-02-18T05:28:18.866Z,44.50
2019-02-18T05:30:46.329Z,44.50
2019-02-18T05:33:13.818Z,44.40
2019-02-18T05:35:41.293Z,44.40
2019-02-18T05:38:08.766Z,44.50
2019-02-18T05:40:36.246Z,44.50
2019-02-18T05:43:03.709Z,44.50
2019-02-18T05:45:31.179Z,44.50
2019-02-18T05:47:58.650Z,44.50
2019-02-18T05:50:26.129Z,44.50
2019-02-18T05:52:53.586Z,44.60
2019-02-18T05:55:21.049Z,44.50
2019-02-18T05:57:48.591Z,44.60
2019-02-18T06:00:16.423Z,44.50
2019-02-18T06:02:43.899Z,44.50
2019-02-18T06:05:11.378Z,44.50
2019-02-18T06:07:38.866Z,44.40
2019-02-18T06:10:07.386Z,44.80
2019-02-18T06:12:34.865Z,44.40
2019-02-18T06:15:02.326Z,44.40
2019-02-18T06:17:29.796Z,44.40
2019-02-18T06:19:59.129Z,44.50
2019-02-18T06:22:26.595Z,44.40
2019-02-18T06:24:54.065Z,44.30
2019-02-18T06:27:21.525Z,44.30
2019-02-18T06:29:48.998Z,44.20
2019-02-18T06:32:16.502Z,44.20
2019-02-18T06:34:43.969Z,44.30
2019-02-18T06:37:11.546Z,44.40
2019-02-18T06:39:41.638Z,44.20
2019-02-18T06:42:08.211Z,44.30
2019-02-18T06:44:37.317Z,44.20
2019-02-18T06:47:06.153Z,44.10
2019-02-18T06:49:33.910Z,44.20
2019-02-18T06:52:01.373Z,44.30
2019-02-18T06:54:28.846Z,44.30
2019-02-18T06:56:57.942Z,44.40
2019-02-18T06:59:29.804Z,44.30
2019-02-18T07:02:02.085Z,44.10
2019-02-18T07:04:31.190Z,44.10
2019-02-18T07:07:03.056Z,44.00
2019-02-18T07:09:38.146Z,43.80
2019-02-18T07:12:09.722Z,43.70
2019-02-18T07:14:37.198Z,43.80
2019-02-18T07:17:04.662Z,43.90
2019-02-18T07:19:32.153Z,43.90
2019-02-18T07:21:59.615Z,43.90
2019-02-18T07:24:27.091Z,43.90
2019-02-18T07:26:54.553Z,43.80
2019-02-18T07:29:22.049Z,43.70
2019-02-18T07:31:49.514Z,43.80
2019-02-18T07:34:16.999Z,43.70
2019-02-18T07:36:44.513Z,43.60
2019-02-18T07:39:11.981Z,43.70
2019-02-18T07:41:39.449Z,43.80
2019-02-18T07:44:06.909Z,43.70
2019-02-18T07:46:34.373Z,43.80
2019-02-18T07:49:01.834Z,43.80
2019-02-18T07:51:29.301Z,43.80
2019-02-18T07:53:56.766Z,43.90
2019-02-18T07:56:24.240Z,43.90
2019-02-18T07:58:51.700Z,43.80
2019-02-18T08:01:19.174Z,43.90
2019-02-18T08:03:46.650Z,43.80
2019-02-18T08:06:14.146Z,43.90
2019-02-18T08:08:41.597Z,43.80
2019-02-18T08:11:09.083Z,43.80
2019-02-18T08:13:36.562Z,44.00
2019-02-18T08:16:04.046Z,44.00
2019-02-18T08:18:31.509Z,43.90
2019-02-18T08:20:58.987Z,43.90
2019-02-18T08:23:26.441Z,43.90
2019-02-18T08:25:53.900Z,43.80
2019-02-18T08:28:21.366Z,43.80
2019-02-18T08:30:48.828Z,43.70
2019-02-18T08:33:16.301Z,43.60
2019-02-18T08:35:43.761Z,43.60
2019-02-18T08:38:11.230Z,43.60
2019-02-18T08:40:38.692Z,43.60
2019-02-18T08:43:06.209Z,43.50
2019-02-18T08:45:33.678Z,43.40
2019-02-18T08:48:01.141Z,44.00
2019-02-18T08:50:28.613Z,43.90
2019-02-18T08:52:56.082Z,44.00
2019-02-18T08:55:23.547Z,44.00
2019-02-18T08:57:51.036Z,44.00
2019-02-18T09:00:18.617Z,44.00
2019-02-18T09:02:46.096Z,43.90
2019-02-18T09:05:13.653Z,43.90
2019-02-18T09:07:41.223Z,43.90
2019-02-18T09:10:10.382Z,43.90
2019-02-18T09:12:37.865Z,43.80
2019-02-18T09:15:06.400Z,43.80
2019-02-18T09:17:33.886Z,43.90
2019-02-18T09:20:01.355Z,43.90
2019-02-18T09:22:36.219Z,43.90
2019-02-18T09:25:06.290Z,43.90
2019-02-18T09:27:33.758Z,43.90
2019-02-18T09:30:01.231Z,43.90
2019-02-18T09:32:28.757Z,44.00
2019-02-18T09:35:01.907Z,44.00
2019-02-18T09:37:25.420Z,44.00
2019-02-18T09:39:52.965Z,44.00
2019-02-18T09:42:20.430Z,44.00
2019-02-18T09:44:47.905Z,44.00
2019-02-18T09:47:15.375Z,43.90
2019-02-18T09:49:42.844Z,44.00
2019-02-18T09:52:10.318Z,43.90
2019-02-18T09:54:37.790Z,43.90
2019-02-18T09:57:05.435Z,43.90
2019-02-18T09:59:32.975Z,44.00
2019-02-18T10:02:00.446Z,44.00
2019-02-18T10:04:27.910Z,44.00
2019-02-18T10:06:55.380Z,44.60
2019-02-18T10:09:22.860Z,44.10
2019-02-18T10:11:50.329Z,44.10
2019-02-18T10:14:17.809Z,44.20
2019-02-18T10:16:45.275Z,44.20
2019-02-18T10:19:12.744Z,44.20
2019-02-18T10:21:40.217Z,44.20
2019-02-18T10:24:08.009Z,44.20
2019-02-18T10:26:35.486Z,44.30
2019-02-18T10:29:02.959Z,44.40
2019-02-18T10:31:30.423Z,44.20
2019-02-18T10:33:57.885Z,44.80
2019-02-18T10:36:25.368Z,44.30
2019-02-18T10:38:52.832Z,44.20
2019-02-18T10:41:20.297Z,44.30
2019-02-18T10:43:47.783Z,44.40
2019-02-18T10:46:15.243Z,44.90
2019-02-18T10:48:42.729Z,44.40
2019-02-18T10:51:10.269Z,44.30
2019-02-18T10:53:37.838Z,44.90
2019-02-18T10:56:05.382Z,44.30
2019-02-18T10:58:32.841Z,44.30
2019-02-18T11:01:00.755Z,44.40
2019-02-18T11:03:28.222Z,44.40
2019-02-18T11:05:55.686Z,44.20
2019-02-18T11:08:23.153Z,44.40
2019-02-18T11:10:50.680Z,44.30
2019-02-18T11:13:18.145Z,44.30
2019-02-18T11:15:45.648Z,44.40
2019-02-18T11:18:13.172Z,44.40
2019-02-18T11:20:40.635Z,44.40
2019-02-18T11:23:08.105Z,44.30
2019-02-18T11:25:35.572Z,44.30
2019-02-18T11:28:03.409Z,44.30
2019-02-18T11:30:30.987Z,44.30
2019-02-18T11:32:58.416Z,44.20
2019-02-18T11:35:25.882Z,44.20
2019-02-18T11:37:53.355Z,44.20
2019-02-18T11:40:20.966Z,44.10
2019-02-18T11:42:48.917Z,44.20
2019-02-18T11:45:16.546Z,44.10
2019-02-18T11:47:44.105Z,44.20
2019-02-18T11:50:12.504Z,44.10
2019-02-18T11:52:39.990Z,44.10
2019-02-18T11:55:08.620Z,44.20
2019-02-18T11:57:36.113Z,44.20
2019-02-18T12:00:04.347Z,44.20
2019-02-18T12:02:31.833Z,44.30
2019-02-18T12:04:59.298Z,44.20
2019-02-18T12:07:26.783Z,44.20
2019-02-18T12:09:54.255Z,44.10
2019-02-18T12:12:21.818Z,44.20
2019-02-18T12:14:49.277Z,44.30
2019-02-18T12:19:46.355Z,44.30
2019-02-18T12:22:13.827Z,44.20
2019-02-18T12:24:41.370Z,44.30
2019-02-18T12:27:08.838Z,44.30
2019-02-18T12:29:36.311Z,44.30
2019-02-18T12:32:03.852Z,44.30
2019-02-18T12:34:31.709Z,44.30
2019-02-18T12:36:59.164Z,44.30
2019-02-18T12:39:26.640Z,44.20
2019-02-18T12:41:54.175Z,44.30
2019-02-18T12:44:21.647Z,44.40
2019-02-18T12:46:49.111Z,44.20
2019-02-18T12:49:16.589Z,44.30
2019-02-18T12:51:44.332Z,45.10
2019-02-18T12:54:11.806Z,44.40
2019-02-18T12:56:39.355Z,44.30
2019-02-18T12:59:06.887Z,44.20
2019-02-18T13:01:34.354Z,44.30
2019-02-18T13:04:01.841Z,44.30
2019-02-18T13:06:29.306Z,44.40
2019-02-18T13:08:57.057Z,44.40
2019-02-18T13:11:24.518Z,44.30
2019-02-18T13:13:52.264Z,44.40
2019-02-18T13:16:19.730Z,44.30
2019-02-18T13:18:47.191Z,44.30
2019-02-18T13:21:16.382Z,44.30
2019-02-18T13:23:43.837Z,44.20
2019-02-18T13:26:11.310Z,44.20
2019-02-18T13:28:38.779Z,44.20
2019-02-18T13:31:06.253Z,44.10
2019-02-18T13:33:33.989Z,44.10
2019-02-18T13:36:01.460Z,44.10
2019-02-18T13:38:28.918Z,44.10
2019-02-18T13:40:56.391Z,44.10
2019-02-18T13:43:23.855Z,44.20
2019-02-18T13:45:51.313Z,44.30
2019-02-18T13:48:18.791Z,44.40
2019-02-18T13:50:46.632Z,45.00
2019-02-18T13:53:14.099Z,44.30
2019-02-18T13:55:41.577Z,44.30
2019-02-18T13:58:09.055Z,45.00
2019-02-18T14:00:36.778Z,44.50
2019-02-18T14:03:04.258Z,44.40
2019-02-18T14:05:31.733Z,44.40
2019-02-18T14:07:59.573Z,44.40
2019-02-18T14:10:27.204Z,44.40
2019-02-18T14:12:54.666Z,44.40
2019-02-18T14:15:22.390Z,44.30
2019-02-18T14:17:50.646Z,44.30
2019-02-18T14:20:18.308Z,44.30
2019-02-18T14:22:45.892Z,44.30
2019-02-18T14:25:13.844Z,44.30
2019-02-18T14:27:41.424Z,44.40
2019-02-18T14:30:13.246Z,44.50
2019-02-18T14:32:40.730Z,44.50
2019-02-18T14:35:08.204Z,44.50
2019-02-18T14:37:35.737Z,44.40
2019-02-18T14:40:04.485Z,44.50
2019-02-18T14:42:32.001Z,44.50
2019-02-18T14:44:59.742Z,44.60
2019-02-18T14:47:27.527Z,44.60
2019-02-18T14:49:54.991Z,44.50
2019-02-18T14:52:22.504Z,44.50
2019-02-18T14:54:49.977Z,44.60
2019-02-18T14:57:17.526Z,44.50
2019-02-18T14:59:44.986Z,44.50
2019-02-18T15:02:12.467Z,44.60
2019-02-18T15:04:39.956Z,44.50
2019-02-18T15:07:07.432Z,44.60
2019-02-18T15:09:34.900Z,44.30
2019-02-18T15:12:02.376Z,44.30
2019-02-18T15:14:29.840Z,44.20
2019-02-18T15:16:57.320Z,44.20
2019-02-18T15:19:24.774Z,44.10
2019-02-18T15:21:52.259Z,44.00
2019-02-18T15:24:19.727Z,44.00
2019-02-18T15:26:47.201Z,44.00
2019-02-18T15:29:14.686Z,43.90
2019-02-18T15:31:42.175Z,43.90
2019-02-18T15:34:09.763Z,44.00
2019-02-18T15:39:04.931Z,44.00
2019-02-18T15:41:32.409Z,44.00
2019-02-18T15:43:59.960Z,43.90
2019-02-18T15:46:27.422Z,43.70
2019-02-18T15:48:54.894Z,44.00
2019-02-18T15:51:22.429Z,44.00
2019-02-18T15:53:49.900Z,44.30
2019-02-18T15:56:17.437Z,44.30
2019-02-18T15:58:44.987Z,44.30
2019-02-18T16:01:12.454Z,44.40
2019-02-18T16:03:39.931Z,44.20
2019-02-18T16:06:07.429Z,44.30
2019-02-18T16:08:35.086Z,44.40
2019-02-18T16:11:02.552Z,44.30
2019-02-18T16:13:30.030Z,44.30
2019-02-18T16:15:57.486Z,44.30
2019-02-18T16:18:24.957Z,44.20
2019-02-18T16:20:52.424Z,44.20
2019-02-18T16:23:19.918Z,44.20
2019-02-18T16:25:47.683Z,44.20
2019-02-18T16:28:15.147Z,44.20
2019-02-18T16:30:42.607Z,44.20
2019-02-18T16:33:10.070Z,44.20
2019-02-18T16:35:38.019Z,44.30
2019-02-18T16:38:05.563Z,44.40
2019-02-18T16:40:33.514Z,44.60
2019-02-18T16:43:01.299Z,44.40
2019-02-18T16:45:28.777Z,44.40
2019-02-18T16:47:56.242Z,44.50
2019-02-18T16:50:23.775Z,44.40
2019-02-18T16:52:51.330Z,44.40
2019-02-18T16:55:18.804Z,44.40
2019-02-18T16:57:46.337Z,44.40
2019-02-18T17:00:16.626Z,44.20
2019-02-18T17:02:44.090Z,44.20
2019-02-18T17:05:11.756Z,44.10
2019-02-18T17:07:39.222Z,44.20
2019-02-18T17:10:07.362Z,44.20
2019-02-18T17:12:34.834Z,44.30
2019-02-18T17:15:03.354Z,44.30
2019-02-18T17:17:30.822Z,44.20
2019-02-18T17:19:58.303Z,44.20
2019-02-18T17:22:25.774Z,44.20
2019-02-18T17:24:53.543Z,44.20
2019-02-18T17:27:21.012Z,44.20
2019-02-18T17:29:48.553Z,44.20
2019-02-18T17:32:16.022Z,44.20
2019-02-18T17:34:45.009Z,44.10
2019-02-18T17:37:12.550Z,44.10
2019-02-18T17:39:40.021Z,44.20
2019-02-18T17:42:07.493Z,44.20
2019-02-18T17:44:34.966Z,44.20
2019-02-18T17:47:02.439Z,44.40
2019-02-18T17:49:29.977Z,44.50
2019-02-18T17:51:57.720Z,44.50
2019-02-18T17:54:25.193Z,44.50
2019-02-18T17:56:52.745Z,44.50
2019-02-18T17:59:20.245Z,44.50
2019-02-18T18:01:47.765Z,44.60
2019-02-18T18:04:15.503Z,44.60
2019-02-18T18:06:42.977Z,44.60
2019-02-18T18:09:10.829Z,44.60
2019-02-18T18:11:38.315Z,44.60
2019-02-18T18:14:05.773Z,44.80
2019-02-18T18:16:33.247Z,44.80
2019-02-18T18:19:08.952Z,44.80
2019-02-18T18:21:29.938Z,44.80
2019-02-18T18:23:57.754Z,44.70
2019-02-18T18:26:25.230Z,44.70
2019-02-18T18:28:52.707Z,44.60
2019-02-18T18:31:20.214Z,44.60
2019-02-18T18:33:47.689Z,44.70
2019-02-18T18:36:15.189Z,44.70
2019-02-18T18:38:42.937Z,44.70
2019-02-18T18:41:10.419Z,44.70
2019-02-18T18:43:38.057Z,44.80
2019-02-18T18:46:05.523Z,45.00
2019-02-18T18:48:33.038Z,45.00
2019-02-18T18:51:00.554Z,45.10
2019-02-18T18:53:28.065Z,45.30
2019-02-18T18:55:55.536Z,45.30
2019-02-18T18:58:23.022Z,45.50
2019-02-18T19:00:50.831Z,45.40
2019-02-18T19:03:18.306Z,45.30
2019-02-18T19:05:45.781Z,45.30
2019-02-18T19:08:13.250Z,45.30
2019-02-18T19:10:40.719Z,45.30
2019-02-18T19:13:08.236Z,45.20
2019-02-18T19:15:36.191Z,45.20
2019-02-18T19:18:03.667Z,45.30
2019-02-18T19:20:31.185Z,45.20
2019-02-18T19:22:58.755Z,45.40
2019-02-18T19:25:26.336Z,45.50
2019-02-18T19:27:54.374Z,45.90
2019-02-18T19:30:31.876Z,45.40
2019-02-18T19:33:00.347Z,44.80
2019-02-18T19:35:28.355Z,45.30
2019-02-18T19:37:56.712Z,45.20
2019-02-18T19:40:28.622Z,45.20
2019-02-18T19:42:56.117Z,45.20
2019-02-18T19:45:24.279Z,45.10
2019-02-18T19:47:51.790Z,45.10
2019-02-18T19:50:19.304Z,45.00
2019-02-18T19:52:46.795Z,45.00
2019-02-18T19:55:14.492Z,45.20
2019-02-18T19:57:42.089Z,45.20
2019-02-18T20:00:10.960Z,45.30
2019-02-18T20:02:38.622Z,45.20
2019-02-18T20:05:07.372Z,45.10
2019-02-18T20:07:34.908Z,45.00
2019-02-18T20:10:02.904Z,45.00
2019-02-18T20:12:30.521Z,45.50
2019-02-18T20:14:58.053Z,44.90
2019-02-18T20:17:25.913Z,44.80
2019-02-18T20:19:53.395Z,44.80
2019-02-18T20:22:20.931Z,44.80
2019-02-18T20:24:48.409Z,44.80
2019-02-18T20:27:15.869Z,45.00
2019-02-18T20:29:43.358Z,45.00
2019-02-18T20:32:11.639Z,45.00
2019-02-18T20:34:39.514Z,45.00
2019-02-18T20:37:07.256Z,45.10
2019-02-18T20:39:34.742Z,45.10
2019-02-18T20:42:02.219Z,44.90
2019-02-18T20:44:29.683Z,44.80
2019-02-18T20:46:57.155Z,44.70
2019-02-18T20:49:24.638Z,44.70
2019-02-18T20:51:52.386Z,44.60
2019-02-18T20:54:19.854Z,44.60
2019-02-18T20:56:47.333Z,44.50
2019-02-18T20:59:14.801Z,44.70
2019-02-18T21:01:42.592Z,44.90
2019-02-18T21:04:10.058Z,45.00
2019-02-18T21:06:37.530Z,45.00
2019-02-18T21:09:05.685Z,44.90
2019-02-18T21:11:33.148Z,44.90
2019-02-18T21:14:00.613Z,44.90
2019-02-18T21:16:28.095Z,44.90
2019-02-18T21:18:55.555Z,44.90
2019-02-18T21:21:23.028Z,44.90
2019-02-18T21:23:50.489Z,44.80
2019-02-18T21:26:17.986Z,44.70
2019-02-18T21:28:45.453Z,44.70
2019-02-18T21:31:12.925Z,44.60
2019-02-18T21:33:40.390Z,44.60
2019-02-18T21:36:07.973Z,44.60
2019-02-18T21:38:35.454Z,44.70
2019-02-18T21:41:02.929Z,44.70
2019-02-18T21:43:30.384Z,45.40
2019-02-18T21:45:57.863Z,44.70
2019-02-18T21:48:25.325Z,44.60
2019-02-18T21:50:52.819Z,44.60
2019-02-18T21:53:20.286Z,44.60
2019-02-18T21:55:47.762Z,44.50
2019-02-18T21:58:15.255Z,44.50
2019-02-18T22:00:42.798Z,44.50
2019-02-18T22:03:10.277Z,44.40
2019-02-18T22:05:37.741Z,44.30
2019-02-18T22:08:05.204Z,44.40
2019-02-18T22:10:32.661Z,44.50
2019-02-18T22:13:00.143Z,44.60
2019-02-18T22:15:27.606Z,45.20
2019-02-18T22:17:55.450Z,44.50
2019-02-18T22:20:22.912Z,44.40
2019-02-18T22:22:50.396Z,44.40
2019-02-18T22:25:17.910Z,44.40
2019-02-18T22:27:45.458Z,44.30
2019-02-18T22:30:13.515Z,44.40
2019-02-18T22:32:40.981Z,44.30
2019-02-18T22:35:08.719Z,44.30
2019-02-18T22:37:36.466Z,44.10
2019-02-18T22:40:07.634Z,44.10
2019-02-18T22:42:35.198Z,44.80
2019-02-18T22:45:02.747Z,44.20
2019-02-18T22:47:30.306Z,44.10
2019-02-18T22:49:57.753Z,44.20
2019-02-18T22:52:25.222Z,44.00
2019-02-18T22:54:52.964Z,44.10
2019-02-18T22:57:20.526Z,43.90
2019-02-18T22:59:48.105Z,43.90
2019-02-18T23:02:15.679Z,44.00
2019-02-18T23:04:43.549Z,44.00
2019-02-18T23:07:11.073Z,44.00
2019-02-18T23:09:38.588Z,43.90
2019-02-18T23:12:06.426Z,43.90
2019-02-18T23:14:33.902Z,44.80
2019-02-18T23:17:01.423Z,44.20
2019-02-18T23:19:28.972Z,44.20
2019-02-18T23:21:56.490Z,44.10
2019-02-18T23:24:24.116Z,44.20
2019-02-18T23:26:51.560Z,44.20
2019-02-18T23:29:19.054Z,44.20
2019-02-18T23:31:46.842Z,44.20
2019-02-18T23:34:14.430Z,44.10
2019-02-18T23:36:42.076Z,44.10
2019-02-18T23:39:09.660Z,44.10
2019-02-18T23:41:37.241Z,44.00
2019-02-18T23:44:04.723Z,44.00
2019-02-18T23:46:32.237Z,44.00
2019-02-18T23:48:59.696Z,44.00
2019-02-18T23:51:27.156Z,44.00
2019-02-18T23:53:54.629Z,44.00
2019-02-18T23:56:22.097Z,44.00
2019-02-18T23:58:49.585Z,44.00
